createdAt,value
2017-09-26T00:00:28.682Z,1007.04
2017-09-26T00:01:28.603Z,1007.02
2017-09-26T00:02:28.538Z,1006.98
2017-09-26T00:03:28.444Z,1007.00
2017-09-26T00:04:28.360Z,1007.00
2017-09-26T00:05:28.284Z,1006.99
2017-09-26T00:06:28.205Z,1006.98
2017-09-26T00:07:28.120Z,1006.98
2017-09-26T00:08:28.039Z,1007.01
2017-09-26T00:09:27.964Z,1006.96
2017-09-26T00:10:27.880Z,1006.98
2017-09-26T00:11:27.795Z,1007.00
2017-09-26T00:12:27.716Z,1006.96
2017-09-26T00:13:27.646Z,1006.95
2017-09-26T00:14:27.559Z,1006.95
2017-09-26T00:15:27.478Z,1006.96
2017-09-26T00:16:27.402Z,1006.98
2017-09-26T00:17:27.316Z,1006.97
2017-09-26T00:18:27.427Z,1007.01
2017-09-26T00:19:27.157Z,1006.98
2017-09-26T00:20:27.082Z,1006.98
2017-09-26T00:21:26.997Z,1006.93
2017-09-26T00:22:26.916Z,1006.94
2017-09-26T00:23:26.840Z,1006.96
2017-09-26T00:24:26.753Z,1006.93
2017-09-26T00:25:26.673Z,1006.93
2017-09-26T00:26:26.599Z,1006.92
2017-09-26T00:27:26.518Z,1006.97
2017-09-26T00:28:26.437Z,1006.96
2017-09-26T00:29:26.352Z,1006.99
2017-09-26T00:30:26.287Z,1006.94
2017-09-26T00:31:26.189Z,1006.96
2017-09-26T00:32:26.109Z,1006.93
2017-09-26T00:33:26.027Z,1006.93
2017-09-26T00:34:25.959Z,1006.97
2017-09-26T00:35:25.866Z,1006.94
2017-09-26T00:36:25.791Z,1006.98
2017-09-26T00:37:25.741Z,1006.96
2017-09-26T00:38:25.635Z,1006.99
2017-09-26T00:39:25.542Z,1007.00
2017-09-26T00:40:25.461Z,1006.98
2017-09-26T00:41:25.385Z,1006.96
2017-09-26T00:42:25.308Z,1006.99
2017-09-26T00:43:25.224Z,1006.98
2017-09-26T00:44:25.141Z,1006.99
2017-09-26T00:45:25.064Z,1006.95
2017-09-26T00:46:24.977Z,1006.93
2017-09-26T00:47:24.897Z,1006.91
2017-09-26T00:48:24.820Z,1006.92
2017-09-26T00:49:24.733Z,1006.92
2017-09-26T00:50:24.655Z,1006.93
2017-09-26T00:51:24.575Z,1006.91
2017-09-26T00:52:24.498Z,1006.94
2017-09-26T00:53:24.438Z,1006.95
2017-09-26T00:54:24.329Z,1006.94
2017-09-26T00:55:24.282Z,1006.94
2017-09-26T00:56:24.183Z,1006.94
2017-09-26T00:57:24.086Z,1006.96
2017-09-26T00:58:24.002Z,1006.93
2017-09-26T00:59:23.940Z,1006.92
2017-09-26T01:00:23.845Z,1006.94
2017-09-26T01:01:23.766Z,1006.87
2017-09-26T01:02:23.721Z,1006.88
2017-09-26T01:03:23.636Z,1006.88
2017-09-26T01:04:23.520Z,1006.93
2017-09-26T01:05:23.440Z,1006.89
2017-09-26T01:06:23.369Z,1006.89
2017-09-26T01:07:23.284Z,1006.89
2017-09-26T01:08:23.210Z,1006.92
2017-09-26T01:09:23.154Z,1006.88
2017-09-26T01:10:23.057Z,1006.90
2017-09-26T01:11:22.954Z,1006.90
2017-09-26T01:12:22.877Z,1006.88
2017-09-26T01:13:22.811Z,1006.92
2017-09-26T01:14:22.715Z,1006.89
2017-09-26T01:15:22.642Z,1006.87
2017-09-26T01:16:22.552Z,1006.90
2017-09-26T01:17:22.484Z,1006.86
2017-09-26T01:18:22.390Z,1006.89
2017-09-26T01:19:22.324Z,1006.88
2017-09-26T01:20:22.256Z,1006.89
2017-09-26T01:21:22.151Z,1006.92
2017-09-26T01:22:22.068Z,1006.88
2017-09-26T01:23:21.994Z,1006.90
2017-09-26T01:24:21.912Z,1006.92
2017-09-26T01:25:21.823Z,1006.92
2017-09-26T01:26:21.751Z,1006.94
2017-09-26T01:27:21.691Z,1006.93
2017-09-26T01:28:21.584Z,1006.92
2017-09-26T01:29:21.502Z,1006.96
2017-09-26T01:30:21.458Z,1006.96
2017-09-26T01:31:21.348Z,1006.94
2017-09-26T01:32:21.261Z,1006.96
2017-09-26T01:33:21.183Z,1006.89
2017-09-26T01:34:21.104Z,1006.94
2017-09-26T01:35:21.020Z,1006.93
2017-09-26T01:36:20.944Z,1006.94
2017-09-26T01:37:20.857Z,1006.92
2017-09-26T01:38:20.781Z,1006.92
2017-09-26T01:39:20.726Z,1006.98
2017-09-26T01:40:20.615Z,1006.98
2017-09-26T01:41:20.540Z,1006.95
2017-09-26T01:42:20.454Z,1006.96
2017-09-26T01:43:20.373Z,1006.97
2017-09-26T01:44:20.289Z,1006.95
2017-09-26T01:45:20.214Z,1006.96
2017-09-26T01:46:20.129Z,1007.00
2017-09-26T01:47:20.050Z,1007.02
2017-09-26T01:48:19.969Z,1007.01
2017-09-26T01:49:19.888Z,1007.04
2017-09-26T01:50:19.807Z,1007.04
2017-09-26T01:51:19.728Z,1007.01
2017-09-26T01:52:19.645Z,1006.99
2017-09-26T01:53:19.564Z,1007.00
2017-09-26T01:54:19.485Z,1007.00
2017-09-26T01:55:19.400Z,1007.03
2017-09-26T01:56:19.322Z,1007.04
2017-09-26T01:57:19.239Z,1007.04
2017-09-26T01:58:19.157Z,1007.02
2017-09-26T01:59:19.081Z,1007.06
2017-09-26T02:00:19.005Z,1007.05
2017-09-26T02:01:18.918Z,1007.03
2017-09-26T02:02:18.840Z,1007.05
2017-09-26T02:03:18.762Z,1007.05
2017-09-26T02:04:18.684Z,1007.05
2017-09-26T02:05:18.598Z,1007.07
2017-09-26T02:06:18.514Z,1007.03
2017-09-26T02:07:18.432Z,1007.05
2017-09-26T02:08:18.348Z,1007.05
2017-09-26T02:09:18.297Z,1007.00
2017-09-26T02:10:18.187Z,1007.03
2017-09-26T02:11:18.105Z,1006.99
2017-09-26T02:12:18.146Z,1007.06
2017-09-26T02:13:17.948Z,1007.06
2017-09-26T02:14:17.863Z,1007.06
2017-09-26T02:15:17.785Z,1007.01
2017-09-26T02:16:17.698Z,1007.06
2017-09-26T02:17:17.620Z,1007.01
2017-09-26T02:18:17.543Z,1007.00
2017-09-26T02:19:17.456Z,1007.02
2017-09-26T02:20:17.379Z,1007.00
2017-09-26T02:21:17.295Z,1007.01
2017-09-26T02:22:17.225Z,1007.00
2017-09-26T02:23:17.133Z,1007.02
2017-09-26T02:24:17.070Z,1007.03
2017-09-26T02:25:16.969Z,1007.03
2017-09-26T02:26:16.888Z,1007.03
2017-09-26T02:27:16.807Z,1007.06
2017-09-26T02:28:16.725Z,1007.04
2017-09-26T02:29:16.642Z,1007.01
2017-09-26T02:30:16.585Z,1006.95
2017-09-26T02:31:16.514Z,1006.98
2017-09-26T02:32:16.435Z,1006.97
2017-09-26T02:33:16.314Z,1007.01
2017-09-26T02:34:16.237Z,1006.98
2017-09-26T02:35:16.157Z,1006.97
2017-09-26T02:36:16.073Z,1006.97
2017-09-26T02:37:16.000Z,1007.01
2017-09-26T02:38:15.914Z,1006.97
2017-09-26T02:39:15.847Z,1006.99
2017-09-26T02:40:15.752Z,1006.98
2017-09-26T02:41:15.680Z,1006.97
2017-09-26T02:42:15.596Z,1006.96
2017-09-26T02:43:15.511Z,1006.95
2017-09-26T02:44:15.430Z,1006.98
2017-09-26T02:45:15.344Z,1006.99
2017-09-26T02:46:15.267Z,1006.99
2017-09-26T02:47:15.184Z,1007.01
2017-09-26T02:48:15.095Z,1006.96
2017-09-26T02:49:15.030Z,1006.98
2017-09-26T02:50:14.935Z,1007.00
2017-09-26T02:51:14.865Z,1007.00
2017-09-26T02:52:14.773Z,1007.01
2017-09-26T02:53:14.698Z,1007.00
2017-09-26T02:54:14.608Z,1006.95
2017-09-26T02:55:14.531Z,1006.99
2017-09-26T02:56:14.443Z,1007.00
2017-09-26T02:57:14.371Z,1007.00
2017-09-26T02:58:14.281Z,1006.99
2017-09-26T02:59:14.204Z,1006.96
2017-09-26T03:00:14.121Z,1006.95
2017-09-26T03:01:14.041Z,1006.95
2017-09-26T03:02:13.957Z,1006.96
2017-09-26T03:03:13.887Z,1006.94
2017-09-26T03:04:13.793Z,1006.98
2017-09-26T03:05:13.712Z,1007.01
2017-09-26T03:06:13.638Z,1006.93
2017-09-26T03:07:13.547Z,1006.96
2017-09-26T03:08:13.474Z,1007.03
2017-09-26T03:09:13.385Z,1006.97
2017-09-26T03:10:13.306Z,1006.98
2017-09-26T03:11:13.223Z,1007.02
2017-09-26T03:12:13.147Z,1007.03
2017-09-26T03:13:13.057Z,1007.05
2017-09-26T03:14:12.979Z,1007.05
2017-09-26T03:15:12.912Z,1007.09
2017-09-26T03:16:12.815Z,1007.07
2017-09-26T03:17:12.734Z,1007.10
2017-09-26T03:18:12.653Z,1007.11
2017-09-26T03:19:12.576Z,1007.10
2017-09-26T03:20:12.490Z,1007.08
2017-09-26T03:21:12.406Z,1007.12
2017-09-26T03:22:12.326Z,1007.11
2017-09-26T03:23:12.251Z,1007.12
2017-09-26T03:24:12.163Z,1007.12
2017-09-26T03:25:12.087Z,1007.14
2017-09-26T03:26:12.002Z,1007.14
2017-09-26T03:27:11.919Z,1007.13
2017-09-26T03:28:11.836Z,1007.12
2017-09-26T03:29:11.760Z,1007.13
2017-09-26T03:30:11.685Z,1007.17
2017-09-26T03:31:11.597Z,1007.19
2017-09-26T03:32:11.518Z,1007.21
2017-09-26T03:33:11.431Z,1007.16
2017-09-26T03:34:11.346Z,1007.20
2017-09-26T03:35:11.268Z,1007.22
2017-09-26T03:36:11.189Z,1007.20
2017-09-26T03:37:11.109Z,1007.24
2017-09-26T03:38:11.024Z,1007.23
2017-09-26T03:39:10.940Z,1007.19
2017-09-26T03:40:10.859Z,1007.18
2017-09-26T03:41:10.777Z,1007.23
2017-09-26T03:42:10.715Z,1007.24
2017-09-26T03:43:10.619Z,1007.24
2017-09-26T03:44:10.535Z,1007.26
2017-09-26T03:45:10.458Z,1007.24
2017-09-26T03:46:10.379Z,1007.25
2017-09-26T03:47:10.293Z,1007.28
2017-09-26T03:48:10.220Z,1007.28
2017-09-26T03:49:10.132Z,1007.27
2017-09-26T03:50:10.049Z,1007.21
2017-09-26T03:51:09.968Z,1007.25
2017-09-26T03:52:09.906Z,1007.21
2017-09-26T03:53:09.808Z,1007.26
2017-09-26T03:54:09.714Z,1007.28
2017-09-26T03:55:09.640Z,1007.24
2017-09-26T03:56:09.556Z,1007.26
2017-09-26T03:57:09.474Z,1007.30
2017-09-26T03:58:09.394Z,1007.29
2017-09-26T03:59:09.312Z,1007.31
2017-09-26T04:00:09.232Z,1007.33
2017-09-26T04:01:09.145Z,1007.35
2017-09-26T04:02:09.063Z,1007.32
2017-09-26T04:03:09.001Z,1007.33
2017-09-26T04:04:08.898Z,1007.34
2017-09-26T04:05:08.819Z,1007.35
2017-09-26T04:06:08.737Z,1007.31
2017-09-26T04:07:08.656Z,1007.38
2017-09-26T04:08:08.593Z,1007.41
2017-09-26T04:09:08.523Z,1007.42
2017-09-26T04:10:08.410Z,1007.45
2017-09-26T04:11:08.331Z,1007.45
2017-09-26T04:12:08.255Z,1007.42
2017-09-26T04:13:08.160Z,1007.47
2017-09-26T04:14:08.084Z,1007.44
2017-09-26T04:15:07.999Z,1007.42
2017-09-26T04:16:07.920Z,1007.43
2017-09-26T04:17:07.834Z,1007.44
2017-09-26T04:18:07.757Z,1007.41
2017-09-26T04:19:07.672Z,1007.45
2017-09-26T04:20:07.592Z,1007.45
2017-09-26T04:21:07.509Z,1007.43
2017-09-26T04:22:07.428Z,1007.44
2017-09-26T04:23:07.347Z,1007.47
2017-09-26T04:24:07.261Z,1007.45
2017-09-26T04:25:07.181Z,1007.44
2017-09-26T04:26:07.099Z,1007.46
2017-09-26T04:27:07.018Z,1007.43
2017-09-26T04:28:06.961Z,1007.45
2017-09-26T04:29:06.893Z,1007.41
2017-09-26T04:30:06.771Z,1007.43
2017-09-26T04:31:06.688Z,1007.44
2017-09-26T04:32:06.608Z,1007.46
2017-09-26T04:33:06.525Z,1007.45
2017-09-26T04:34:06.442Z,1007.48
2017-09-26T04:35:06.361Z,1007.53
2017-09-26T04:36:06.278Z,1007.51
2017-09-26T04:37:06.196Z,1007.54
2017-09-26T04:38:06.119Z,1007.53
2017-09-26T04:39:06.030Z,1007.53
2017-09-26T04:40:05.949Z,1007.52
2017-09-26T04:41:05.896Z,1007.52
2017-09-26T04:42:05.795Z,1007.50
2017-09-26T04:43:05.710Z,1007.51
2017-09-26T04:44:05.630Z,1007.51
2017-09-26T04:45:05.543Z,1007.49
2017-09-26T04:46:05.468Z,1007.53
2017-09-26T04:47:05.378Z,1007.56
2017-09-26T04:48:05.303Z,1007.59
2017-09-26T04:49:05.212Z,1007.60
2017-09-26T04:50:05.182Z,1007.58
2017-09-26T04:51:05.051Z,1007.56
2017-09-26T04:52:04.967Z,1007.58
2017-09-26T04:53:04.887Z,1007.60
2017-09-26T04:54:04.801Z,1007.60
2017-09-26T04:55:04.721Z,1007.58
2017-09-26T04:56:04.645Z,1007.60
2017-09-26T04:57:04.569Z,1007.62
2017-09-26T04:58:04.478Z,1007.58
2017-09-26T04:59:04.400Z,1007.59
2017-09-26T05:00:04.311Z,1007.59
2017-09-26T05:01:04.222Z,1007.58
2017-09-26T05:02:04.154Z,1007.61
2017-09-26T05:03:04.063Z,1007.61
2017-09-26T05:04:04.001Z,1007.57
2017-09-26T05:05:03.903Z,1007.56
2017-09-26T05:06:03.826Z,1007.57
2017-09-26T05:07:03.740Z,1007.57
2017-09-26T05:08:03.656Z,1007.56
2017-09-26T05:09:03.580Z,1007.61
2017-09-26T05:10:03.509Z,1007.58
2017-09-26T05:11:03.406Z,1007.61
2017-09-26T05:12:03.330Z,1007.64
2017-09-26T05:13:03.243Z,1007.68
2017-09-26T05:14:03.163Z,1007.65
2017-09-26T05:15:03.087Z,1007.68
2017-09-26T05:16:02.996Z,1007.67
2017-09-26T05:17:02.920Z,1007.68
2017-09-26T05:18:02.833Z,1007.69
2017-09-26T05:19:02.756Z,1007.73
2017-09-26T05:20:02.670Z,1007.77
2017-09-26T05:21:02.582Z,1007.76
2017-09-26T05:22:02.510Z,1007.78
2017-09-26T05:23:02.423Z,1007.79
2017-09-26T05:24:02.339Z,1007.83
2017-09-26T05:25:02.262Z,1007.80
2017-09-26T05:26:02.181Z,1007.82
2017-09-26T05:27:02.092Z,1007.82
2017-09-26T05:28:02.011Z,1007.87
2017-09-26T05:29:01.947Z,1007.86
2017-09-26T05:30:01.851Z,1007.90
2017-09-26T05:31:01.767Z,1007.89
2017-09-26T05:32:01.685Z,1007.87
2017-09-26T05:33:01.601Z,1007.91
2017-09-26T05:34:01.531Z,1007.89
2017-09-26T05:35:01.445Z,1007.93
2017-09-26T05:36:01.360Z,1007.94
2017-09-26T05:37:01.298Z,1007.94
2017-09-26T05:38:01.191Z,1007.92
2017-09-26T05:39:01.110Z,1007.99
2017-09-26T05:40:01.031Z,1007.98
2017-09-26T05:41:00.970Z,1008.01
2017-09-26T05:42:00.869Z,1007.98
2017-09-26T05:43:00.778Z,1007.98
2017-09-26T05:44:00.699Z,1008.02
2017-09-26T05:45:00.630Z,1008.05
2017-09-26T05:46:00.536Z,1008.06
2017-09-26T05:47:00.456Z,1008.00
2017-09-26T05:48:00.382Z,1008.00
2017-09-26T05:49:00.288Z,1008.01
2017-09-26T05:50:00.234Z,1008.00
2017-09-26T05:51:00.130Z,1008.05
2017-09-26T05:52:00.043Z,1007.97
2017-09-26T05:52:59.961Z,1007.98
2017-09-26T05:53:59.887Z,1007.99
2017-09-26T05:54:59.798Z,1008.00
2017-09-26T05:55:59.712Z,1008.04
2017-09-26T05:56:59.631Z,1008.05
2017-09-26T05:57:59.564Z,1008.04
2017-09-26T05:58:59.472Z,1008.05
2017-09-26T05:59:59.386Z,1008.07
2017-09-26T06:00:59.317Z,1008.09
2017-09-26T06:01:59.222Z,1008.03
2017-09-26T06:02:59.150Z,1008.02
2017-09-26T06:03:59.054Z,1008.04
2017-09-26T06:04:58.976Z,1008.02
2017-09-26T06:05:58.895Z,1008.03
2017-09-26T06:06:58.810Z,1008.04
2017-09-26T06:07:58.728Z,1008.08
2017-09-26T06:08:58.645Z,1008.10
2017-09-26T06:09:58.563Z,1008.08
2017-09-26T06:10:58.495Z,1008.08
2017-09-26T06:11:58.403Z,1008.11
2017-09-26T06:12:58.318Z,1008.08
2017-09-26T06:13:58.237Z,1008.11
2017-09-26T06:14:58.156Z,1008.12
2017-09-26T06:15:58.075Z,1008.13
2017-09-26T06:16:57.991Z,1008.15
2017-09-26T06:17:57.912Z,1008.17
2017-09-26T06:18:57.840Z,1008.19
2017-09-26T06:19:57.743Z,1008.20
2017-09-26T06:20:57.663Z,1008.19
2017-09-26T06:21:57.587Z,1008.15
2017-09-26T06:22:57.505Z,1008.20
2017-09-26T06:23:57.418Z,1008.18
2017-09-26T06:24:57.332Z,1008.21
2017-09-26T06:25:57.254Z,1008.21
2017-09-26T06:26:57.175Z,1008.20
2017-09-26T06:27:57.102Z,1008.21
2017-09-26T06:28:57.033Z,1008.19
2017-09-26T06:29:56.923Z,1008.22
2017-09-26T06:30:56.847Z,1008.23
2017-09-26T06:31:56.759Z,1008.21
2017-09-26T06:32:56.679Z,1008.20
2017-09-26T06:33:56.619Z,1008.20
2017-09-26T06:34:56.530Z,1008.25
2017-09-26T06:35:56.434Z,1008.23
2017-09-26T06:36:56.346Z,1008.26
2017-09-26T06:37:56.267Z,1008.24
2017-09-26T06:38:56.183Z,1008.25
2017-09-26T06:39:56.102Z,1008.27
2017-09-26T06:40:56.021Z,1008.27
2017-09-26T06:41:55.948Z,1008.26
2017-09-26T06:42:55.860Z,1008.31
2017-09-26T06:43:55.795Z,1008.29
2017-09-26T06:44:55.692Z,1008.27
2017-09-26T06:45:55.613Z,1008.25
2017-09-26T06:46:55.533Z,1008.25
2017-09-26T06:47:55.453Z,1008.22
2017-09-26T06:48:55.365Z,1008.23
2017-09-26T06:49:55.303Z,1008.21
2017-09-26T06:50:55.200Z,1008.28
2017-09-26T06:51:55.123Z,1008.30
2017-09-26T06:52:55.037Z,1008.28
2017-09-26T06:53:54.958Z,1008.27
2017-09-26T06:54:54.883Z,1008.31
2017-09-26T06:55:54.794Z,1008.28
2017-09-26T06:56:54.727Z,1008.29
2017-09-26T06:57:54.631Z,1008.31
2017-09-26T06:58:54.548Z,1008.31
2017-09-26T06:59:54.467Z,1008.36
2017-09-26T07:00:54.387Z,1008.37
2017-09-26T07:01:54.302Z,1008.36
2017-09-26T07:02:54.225Z,1008.41
2017-09-26T07:03:54.147Z,1008.41
2017-09-26T07:04:54.060Z,1008.41
2017-09-26T07:05:53.979Z,1008.45
2017-09-26T07:06:53.896Z,1008.48
2017-09-26T07:07:53.812Z,1008.48
2017-09-26T07:08:53.734Z,1008.50
2017-09-26T07:09:53.690Z,1008.51
2017-09-26T07:10:53.586Z,1008.51
2017-09-26T07:11:53.487Z,1008.55
2017-09-26T07:12:53.407Z,1008.58
2017-09-26T07:13:53.332Z,1008.56
2017-09-26T07:14:53.246Z,1008.56
2017-09-26T07:15:53.170Z,1008.56
2017-09-26T07:16:53.083Z,1008.55
2017-09-26T07:17:53.003Z,1008.59
2017-09-26T07:18:52.921Z,1008.60
2017-09-26T07:19:52.847Z,1008.62
2017-09-26T07:20:52.790Z,1008.59
2017-09-26T07:21:52.670Z,1008.61
2017-09-26T07:22:52.592Z,1008.64
2017-09-26T07:23:52.512Z,1008.61
2017-09-26T07:24:52.430Z,1008.67
2017-09-26T07:25:52.349Z,1008.67
2017-09-26T07:26:52.270Z,1008.68
2017-09-26T07:27:52.183Z,1008.69
2017-09-26T07:28:52.103Z,1008.68
2017-09-26T07:29:52.023Z,1008.69
2017-09-26T07:30:51.941Z,1008.69
2017-09-26T07:31:51.856Z,1008.71
2017-09-26T07:32:51.773Z,1008.68
2017-09-26T07:33:51.697Z,1008.71
2017-09-26T07:34:51.612Z,1008.69
2017-09-26T07:35:51.551Z,1008.70
2017-09-26T07:36:51.449Z,1008.68
2017-09-26T07:37:51.382Z,1008.73
2017-09-26T07:38:51.293Z,1008.78
2017-09-26T07:39:51.205Z,1008.84
2017-09-26T07:40:51.130Z,1008.80
2017-09-26T07:41:51.077Z,1008.73
2017-09-26T07:42:50.962Z,1008.75
2017-09-26T07:43:50.884Z,1008.76
2017-09-26T07:44:50.808Z,1008.80
2017-09-26T07:45:50.721Z,1008.76
2017-09-26T07:46:50.639Z,1008.74
2017-09-26T07:47:50.561Z,1008.74
2017-09-26T07:48:50.486Z,1008.76
2017-09-26T07:49:50.404Z,1008.73
2017-09-26T07:50:50.328Z,1008.81
2017-09-26T07:51:50.239Z,1008.77
2017-09-26T07:52:50.168Z,1008.81
2017-09-26T07:53:50.082Z,1008.78
2017-09-26T07:54:50.004Z,1008.78
2017-09-26T07:55:49.927Z,1008.84
2017-09-26T07:56:49.835Z,1008.98
2017-09-26T07:57:49.770Z,1008.91
2017-09-26T07:58:49.682Z,1008.88
2017-09-26T07:59:49.593Z,1008.91
2017-09-26T08:00:49.512Z,1008.90
2017-09-26T08:01:49.440Z,1008.89
2017-09-26T08:02:49.352Z,1009.25
2017-09-26T08:03:49.303Z,1009.22
2017-09-26T08:04:49.196Z,1009.02
2017-09-26T08:05:49.120Z,1008.94
2017-09-26T08:06:49.034Z,1009.15
2017-09-26T08:07:48.951Z,1009.18
2017-09-26T08:08:48.870Z,1009.12
2017-09-26T08:09:48.791Z,1009.33
2017-09-26T08:10:48.716Z,1009.07
2017-09-26T08:11:48.635Z,1009.01
2017-09-26T08:12:48.555Z,1009.02
2017-09-26T08:13:48.476Z,1009.18
2017-09-26T08:14:48.397Z,1009.29
2017-09-26T08:15:48.324Z,1009.15
2017-09-26T08:16:48.239Z,1009.30
2017-09-26T08:17:48.164Z,1009.34
2017-09-26T08:18:48.078Z,1009.31
2017-09-26T08:19:48.003Z,1009.30
2017-09-26T08:20:47.929Z,1009.22
2017-09-26T08:21:47.847Z,1009.21
2017-09-26T08:22:47.774Z,1009.21
2017-09-26T08:23:47.699Z,1009.19
2017-09-26T08:24:47.620Z,1009.22
2017-09-26T08:25:47.543Z,1009.17
2017-09-26T08:26:47.458Z,1009.14
2017-09-26T08:27:47.377Z,1009.11
2017-09-26T08:28:47.305Z,1009.14
2017-09-26T08:29:47.225Z,1009.11
2017-09-26T08:30:47.151Z,1009.12
2017-09-26T08:31:47.070Z,1009.11
2017-09-26T08:32:46.990Z,1009.09
2017-09-26T08:33:46.908Z,1009.13
2017-09-26T08:34:46.834Z,1009.11
2017-09-26T08:35:46.760Z,1009.10
2017-09-26T08:36:46.680Z,1009.06
2017-09-26T08:37:46.599Z,1009.13
2017-09-26T08:38:46.517Z,1009.09
2017-09-26T08:39:46.440Z,1009.14
2017-09-26T08:40:46.363Z,1009.19
2017-09-26T08:41:46.312Z,1009.13
2017-09-26T08:42:46.211Z,1009.14
2017-09-26T08:43:46.127Z,1009.12
2017-09-26T08:44:46.053Z,1009.21
2017-09-26T08:45:45.994Z,1009.09
2017-09-26T08:46:45.896Z,1009.14
2017-09-26T08:47:45.817Z,1009.20
2017-09-26T08:48:45.740Z,1009.14
2017-09-26T08:49:45.660Z,1009.17
2017-09-26T08:50:45.620Z,1009.15
2017-09-26T08:51:45.516Z,1009.17
2017-09-26T08:52:45.430Z,1009.19
2017-09-26T08:53:45.352Z,1009.28
2017-09-26T08:54:45.282Z,1009.32
2017-09-26T08:55:45.195Z,1009.29
2017-09-26T08:56:45.117Z,1009.36
2017-09-26T08:57:45.096Z,1009.34
2017-09-26T08:58:45.019Z,1009.38
2017-09-26T08:59:44.901Z,1009.38
2017-09-26T09:00:44.817Z,1009.41
2017-09-26T09:01:44.737Z,1009.39
2017-09-26T09:02:44.662Z,1009.47
2017-09-26T09:03:44.591Z,1009.45
2017-09-26T09:04:44.511Z,1009.49
2017-09-26T09:05:44.435Z,1009.50
2017-09-26T09:06:44.359Z,1009.46
2017-09-26T09:07:44.286Z,1009.40
2017-09-26T09:08:44.208Z,1009.26
2017-09-26T09:09:44.136Z,1009.16
2017-09-26T09:10:44.062Z,1009.16
2017-09-26T09:11:43.986Z,1009.11
2017-09-26T09:12:43.912Z,1009.12
2017-09-26T09:13:43.839Z,1009.08
2017-09-26T09:14:43.769Z,1009.04
2017-09-26T09:15:43.686Z,1009.06
2017-09-26T09:16:43.608Z,1009.02
2017-09-26T09:17:43.533Z,1009.05
2017-09-26T09:18:43.459Z,1009.01
2017-09-26T09:19:43.391Z,1009.06
2017-09-26T09:20:43.313Z,1009.07
2017-09-26T09:21:43.239Z,1009.12
2017-09-26T09:22:43.159Z,1009.17
2017-09-26T09:23:43.082Z,1009.20
2017-09-26T09:24:43.010Z,1009.27
2017-09-26T09:25:42.942Z,1009.31
2017-09-26T09:26:42.862Z,1009.39
2017-09-26T09:27:42.786Z,1009.34
2017-09-26T09:28:42.706Z,1009.31
2017-09-26T09:29:42.649Z,1009.31
2017-09-26T09:30:42.559Z,1009.35
2017-09-26T09:31:42.487Z,1009.35
2017-09-26T09:32:42.417Z,1009.31
2017-09-26T09:33:42.336Z,1009.29
2017-09-26T09:34:42.265Z,1009.31
2017-09-26T09:35:42.195Z,1009.31
2017-09-26T09:36:42.118Z,1009.33
2017-09-26T09:37:42.044Z,1009.31
2017-09-26T09:38:41.970Z,1009.31
2017-09-26T09:39:41.896Z,1009.29
2017-09-26T09:40:41.828Z,1009.26
2017-09-26T09:41:41.754Z,1009.25
2017-09-26T09:42:41.681Z,1009.20
2017-09-26T09:43:41.609Z,1009.28
2017-09-26T09:44:41.535Z,1009.24
2017-09-26T09:45:41.464Z,1009.25
2017-09-26T09:46:41.399Z,1009.31
2017-09-26T09:47:41.321Z,1009.26
2017-09-26T09:48:41.250Z,1009.28
2017-09-26T09:49:41.181Z,1009.23
2017-09-26T09:50:41.108Z,1009.24
2017-09-26T09:51:41.066Z,1009.21
2017-09-26T09:52:40.964Z,1009.21
2017-09-26T09:53:40.898Z,1009.21
2017-09-26T09:54:40.822Z,1009.21
2017-09-26T09:55:40.757Z,1009.21
2017-09-26T09:56:40.689Z,1009.18
2017-09-26T09:57:40.627Z,1009.18
2017-09-26T09:58:40.546Z,1009.18
2017-09-26T09:59:40.471Z,1009.16
2017-09-26T10:00:40.405Z,1009.15
2017-09-26T10:01:40.325Z,1009.09
2017-09-26T10:02:40.258Z,1009.02
2017-09-26T10:03:40.185Z,1008.99
2017-09-26T10:04:40.120Z,1008.98
2017-09-26T10:05:40.041Z,1008.98
2017-09-26T10:06:39.975Z,1009.00
2017-09-26T10:07:39.932Z,1009.02
2017-09-26T10:08:39.842Z,1008.99
2017-09-26T10:09:39.768Z,1008.97
2017-09-26T10:10:39.702Z,1008.96
2017-09-26T10:11:39.640Z,1008.94
2017-09-26T10:12:39.564Z,1008.93
2017-09-26T10:13:39.489Z,1008.95
2017-09-26T10:14:39.418Z,1008.87
2017-09-26T10:15:39.356Z,1008.91
2017-09-26T10:16:39.278Z,1008.91
2017-09-26T10:17:39.202Z,1008.90
2017-09-26T10:18:39.138Z,1008.92
2017-09-26T10:19:39.064Z,1008.89
2017-09-26T10:20:39.004Z,1008.89
2017-09-26T10:21:38.939Z,1008.84
2017-09-26T10:22:38.862Z,1008.84
2017-09-26T10:23:38.799Z,1008.79
2017-09-26T10:24:38.728Z,1008.78
2017-09-26T10:25:38.659Z,1008.75
2017-09-26T10:26:38.591Z,1008.76
2017-09-26T10:27:38.522Z,1008.79
2017-09-26T10:28:38.455Z,1008.94
2017-09-26T10:29:38.384Z,1008.83
2017-09-26T10:30:38.321Z,1009.04
2017-09-26T10:31:38.254Z,1009.02
2017-09-26T10:32:38.184Z,1009.00
2017-09-26T10:33:38.110Z,1009.00
2017-09-26T10:34:38.046Z,1008.81
2017-09-26T10:35:37.986Z,1008.89
2017-09-26T10:36:37.908Z,1008.63
2017-09-26T10:37:37.845Z,1009.05
2017-09-26T10:38:37.769Z,1009.01
2017-09-26T10:39:37.701Z,1008.83
2017-09-26T10:40:37.629Z,1008.63
2017-09-26T10:41:37.557Z,1008.64
2017-09-26T10:42:37.486Z,1008.61
2017-09-26T10:43:37.420Z,1008.85
2017-09-26T10:44:37.349Z,1008.93
2017-09-26T10:45:37.288Z,1008.95
2017-09-26T10:46:37.206Z,1008.84
2017-09-26T10:47:37.138Z,1008.92
2017-09-26T10:48:37.074Z,1008.92
2017-09-26T10:49:37.003Z,1008.94
2017-09-26T10:50:36.933Z,1008.97
2017-09-26T10:51:36.864Z,1008.97
2017-09-26T10:52:36.787Z,1008.96
2017-09-26T10:53:36.722Z,1008.93
2017-09-26T10:54:36.666Z,1008.97
2017-09-26T10:55:36.585Z,1009.06
2017-09-26T10:56:36.508Z,1009.05
2017-09-26T10:57:36.437Z,1009.10
2017-09-26T10:58:36.378Z,1009.07
2017-09-26T10:59:36.300Z,1009.05
2017-09-26T11:00:36.270Z,1009.06
2017-09-26T11:01:36.161Z,1009.05
2017-09-26T11:02:36.097Z,1009.16
2017-09-26T11:03:36.028Z,1009.22
2017-09-26T11:04:35.953Z,1009.26
2017-09-26T11:05:35.882Z,1009.34
2017-09-26T11:06:35.830Z,1009.33
2017-09-26T11:07:35.750Z,1009.35
2017-09-26T11:08:35.675Z,1009.37
2017-09-26T11:09:35.604Z,1009.44
2017-09-26T11:10:35.538Z,1009.42
2017-09-26T11:11:35.477Z,1009.39
2017-09-26T11:12:35.397Z,1009.16
2017-09-26T11:13:35.346Z,1008.96
2017-09-26T11:14:35.266Z,1008.93
2017-09-26T11:15:35.195Z,1008.89
2017-09-26T11:16:35.126Z,1008.92
2017-09-26T11:17:35.053Z,1008.91
2017-09-26T11:18:34.991Z,1008.98
2017-09-26T11:19:34.917Z,1009.28
2017-09-26T11:20:34.851Z,1009.45
2017-09-26T11:21:34.780Z,1009.46
2017-09-26T11:22:34.720Z,1009.44
2017-09-26T11:23:34.674Z,1009.44
2017-09-26T11:24:34.579Z,1009.43
2017-09-26T11:25:34.510Z,1009.42
2017-09-26T11:26:34.445Z,1009.43
2017-09-26T11:27:34.378Z,1009.35
2017-09-26T11:28:34.311Z,1009.29
2017-09-26T11:29:34.250Z,1009.46
2017-09-26T11:30:34.182Z,1009.68
2017-09-26T11:31:34.117Z,1009.71
2017-09-26T11:32:34.053Z,1009.75
2017-09-26T11:33:33.981Z,1009.73
2017-09-26T11:34:33.921Z,1009.75
2017-09-26T11:35:33.851Z,1009.74
2017-09-26T11:36:33.778Z,1009.72
2017-09-26T11:37:33.713Z,1009.67
2017-09-26T11:38:33.651Z,1009.70
2017-09-26T11:39:33.585Z,1009.69
2017-09-26T11:40:33.508Z,1009.66
2017-09-26T11:41:33.444Z,1009.61
2017-09-26T11:42:33.371Z,1009.59
2017-09-26T11:43:33.302Z,1009.49
2017-09-26T11:44:33.245Z,1008.89
2017-09-26T11:45:33.163Z,1008.76
2017-09-26T11:46:33.094Z,1008.69
2017-09-26T11:47:33.024Z,1008.69
2017-09-26T11:48:32.947Z,1008.69
2017-09-26T11:49:32.880Z,1008.68
2017-09-26T11:50:32.816Z,1008.70
2017-09-26T11:51:32.732Z,1008.69
2017-09-26T11:52:32.669Z,1008.64
2017-09-26T11:53:32.590Z,1008.64
2017-09-26T11:54:32.527Z,1008.63
2017-09-26T11:55:32.450Z,1008.61
2017-09-26T11:56:32.384Z,1008.62
2017-09-26T11:57:32.307Z,1008.64
2017-09-26T11:58:32.237Z,1008.58
2017-09-26T11:59:32.165Z,1008.47
2017-09-26T12:00:32.093Z,1008.50
2017-09-26T12:01:32.022Z,1008.55
2017-09-26T12:02:31.951Z,1008.54
2017-09-26T12:03:31.876Z,1008.39
2017-09-26T12:04:31.806Z,1008.40